sensor_id;sensor_type;location;lat;lon;timestamp;temperature;humidity
24338;DHT22;12457;50.832;4.346;2023-11-19T00:00:12;13.80;99.90
24338;DHT22;12457;50.832;4.346;2023-11-19T00:02:38;13.80;99.90
24338;DHT22;12457;50.832;4.346;2023-11-19T00:05:05;13.80;99.90
24338;DHT22;12457;50.832;4.346;2023-11-19T00:07:37;13.70;99.90
24338;DHT22;12457;50.832;4.346;2023-11-19T00:10:16;13.70;99.90
24338;DHT22;12457;50.832;4.346;2023-11-19T00:12:45;13.80;99.90
24338;DHT22;12457;50.832;4.346;2023-11-19T00:15:15;13.80;99.90
24338;DHT22;12457;50.832;4.346;2023-11-19T00:17:42;13.80;99.90
24338;DHT22;12457;50.832;4.346;2023-11-19T00:20:12;13.80;99.90
24338;DHT22;12457;50.832;4.346;2023-11-19T00:22:38;13.70;99.90
24338;DHT22;12457;50.832;4.346;2023-11-19T00:25:32;13.70;99.90
24338;DHT22;12457;50.832;4.346;2023-11-19T00:27:58;13.70;99.90
24338;DHT22;12457;50.832;4.346;2023-11-19T00:30:25;13.70;99.90
24338;DHT22;12457;50.832;4.346;2023-11-19T00:32:50;13.70;99.90
24338;DHT22;12457;50.832;4.346;2023-11-19T00:35:17;13.70;99.90
24338;DHT22;12457;50.832;4.346;2023-11-19T00:37:43;13.70;99.90
24338;DHT22;12457;50.832;4.346;2023-11-19T00:40:11;13.60;99.90
24338;DHT22;12457;50.832;4.346;2023-11-19T00:42:37;13.60;99.90
24338;DHT22;12457;50.832;4.346;2023-11-19T00:45:03;13.60;99.90
24338;DHT22;12457;50.832;4.346;2023-11-19T00:47:29;13.60;99.90
24338;DHT22;12457;50.832;4.346;2023-11-19T00:49:56;13.60;99.90
24338;DHT22;12457;50.832;4.346;2023-11-19T00:52:22;13.60;99.90
24338;DHT22;12457;50.832;4.346;2023-11-19T00:55:00;13.60;99.90
24338;DHT22;12457;50.832;4.346;2023-11-19T00:57:25;13.60;99.90
24338;DHT22;12457;50.832;4.346;2023-11-19T00:59:53;13.70;99.90
24338;DHT22;12457;50.832;4.346;2023-11-19T01:02:19;13.70;99.90
24338;DHT22;12457;50.832;4.346;2023-11-19T01:04:44;13.60;99.90
24338;DHT22;12457;50.832;4.346;2023-11-19T01:07:10;13.70;99.90
24338;DHT22;12457;50.832;4.346;2023-11-19T01:09:41;13.70;99.90
24338;DHT22;12457;50.832;4.346;2023-11-19T01:12:07;13.70;99.90
24338;DHT22;12457;50.832;4.346;2023-11-19T01:14:34;13.70;99.90
24338;DHT22;12457;50.832;4.346;2023-11-19T01:17:01;13.70;99.90
24338;DHT22;12457;50.832;4.346;2023-11-19T01:19:27;13.70;99.90
24338;DHT22;12457;50.832;4.346;2023-11-19T01:21:54;13.70;99.90
24338;DHT22;12457;50.832;4.346;2023-11-19T01:24:20;13.70;99.90
24338;DHT22;12457;50.832;4.346;2023-11-19T01:26:49;13.70;99.90
24338;DHT22;12457;50.832;4.346;2023-11-19T01:29:15;13.60;99.90
24338;DHT22;12457;50.832;4.346;2023-11-19T01:31:45;13.60;99.90
24338;DHT22;12457;50.832;4.346;2023-11-19T01:34:16;13.60;99.90
24338;DHT22;12457;50.832;4.346;2023-11-19T01:36:42;13.60;99.90
24338;DHT22;12457;50.832;4.346;2023-11-19T01:39:08;13.60;99.90
24338;DHT22;12457;50.832;4.346;2023-11-19T01:41:39;13.60;99.90
24338;DHT22;12457;50.832;4.346;2023-11-19T01:44:06;13.60;99.90
24338;DHT22;12457;50.832;4.346;2023-11-19T01:46:33;13.60;99.90
24338;DHT22;12457;50.832;4.346;2023-11-19T01:49:00;13.60;99.90
24338;DHT22;12457;50.832;4.346;2023-11-19T01:51:27;13.60;99.90
24338;DHT22;12457;50.832;4.346;2023-11-19T01:53:55;13.60;99.90
24338;DHT22;12457;50.832;4.346;2023-11-19T01:56:22;13.60;99.90
24338;DHT22;12457;50.832;4.346;2023-11-19T01:58:49;13.60;99.90
24338;DHT22;12457;50.832;4.346;2023-11-19T02:01:15;13.70;99.90
24338;DHT22;12457;50.832;4.346;2023-11-19T02:03:41;13.70;99.90
24338;DHT22;12457;50.832;4.346;2023-11-19T02:06:12;13.70;99.90
24338;DHT22;12457;50.832;4.346;2023-11-19T02:08:38;13.70;99.90
24338;DHT22;12457;50.832;4.346;2023-11-19T02:11:05;13.60;99.90
24338;DHT22;12457;50.832;4.346;2023-11-19T02:13:32;13.50;99.90
24338;DHT22;12457;50.832;4.346;2023-11-19T02:15:59;13.40;99.90
24338;DHT22;12457;50.832;4.346;2023-11-19T02:18:26;13.40;99.90
24338;DHT22;12457;50.832;4.346;2023-11-19T02:20:57;13.30;99.90
24338;DHT22;12457;50.832;4.346;2023-11-19T02:23:23;13.30;99.90
24338;DHT22;12457;50.832;4.346;2023-11-19T02:26:14;13.20;99.90
24338;DHT22;12457;50.832;4.346;2023-11-19T02:28:44;13.30;99.90
24338;DHT22;12457;50.832;4.346;2023-11-19T02:31:10;13.20;99.90
24338;DHT22;12457;50.832;4.346;2023-11-19T02:33:37;13.10;99.90
24338;DHT22;12457;50.832;4.346;2023-11-19T02:36:05;13.20;99.90
24338;DHT22;12457;50.832;4.346;2023-11-19T02:38:36;13.20;99.90
24338;DHT22;12457;50.832;4.346;2023-11-19T02:41:04;13.20;99.90
24338;DHT22;12457;50.832;4.346;2023-11-19T02:43:34;13.20;99.90
24338;DHT22;12457;50.832;4.346;2023-11-19T02:46:03;13.30;99.90
24338;DHT22;12457;50.832;4.346;2023-11-19T02:48:33;13.30;99.90
24338;DHT22;12457;50.832;4.346;2023-11-19T02:51:06;13.30;99.90
24338;DHT22;12457;50.832;4.346;2023-11-19T02:53:35;13.30;99.90
24338;DHT22;12457;50.832;4.346;2023-11-19T02:56:01;13.30;99.90
24338;DHT22;12457;50.832;4.346;2023-11-19T02:58:31;13.30;99.90
24338;DHT22;12457;50.832;4.346;2023-11-19T03:00:57;13.30;99.90
24338;DHT22;12457;50.832;4.346;2023-11-19T03:03:24;13.20;99.90
24338;DHT22;12457;50.832;4.346;2023-11-19T03:05:57;13.20;99.90
24338;DHT22;12457;50.832;4.346;2023-11-19T03:08:23;13.00;99.90
24338;DHT22;12457;50.832;4.346;2023-11-19T03:10:50;13.00;99.90
24338;DHT22;12457;50.832;4.346;2023-11-19T03:13:16;13.00;99.90
24338;DHT22;12457;50.832;4.346;2023-11-19T03:15:44;12.90;99.90
24338;DHT22;12457;50.832;4.346;2023-11-19T03:18:11;12.80;99.90
24338;DHT22;12457;50.832;4.346;2023-11-19T03:20:37;12.80;99.90
24338;DHT22;12457;50.832;4.346;2023-11-19T03:23:03;12.80;99.90
24338;DHT22;12457;50.832;4.346;2023-11-19T03:25:29;12.80;99.90
24338;DHT22;12457;50.832;4.346;2023-11-19T03:28:02;12.80;99.90
24338;DHT22;12457;50.832;4.346;2023-11-19T03:30:29;12.70;99.90
24338;DHT22;12457;50.832;4.346;2023-11-19T03:32:56;12.60;99.90
24338;DHT22;12457;50.832;4.346;2023-11-19T03:35:24;12.60;99.90
24338;DHT22;12457;50.832;4.346;2023-11-19T03:37:50;12.60;99.90
24338;DHT22;12457;50.832;4.346;2023-11-19T03:40:17;12.50;99.90
24338;DHT22;12457;50.832;4.346;2023-11-19T03:42:45;12.50;99.90
24338;DHT22;12457;50.832;4.346;2023-11-19T03:45:11;12.30;99.90
24338;DHT22;12457;50.832;4.346;2023-11-19T03:47:37;12.30;99.90
24338;DHT22;12457;50.832;4.346;2023-11-19T03:50:04;12.30;99.90
24338;DHT22;12457;50.832;4.346;2023-11-19T03:52:30;12.20;99.90
24338;DHT22;12457;50.832;4.346;2023-11-19T03:54:55;12.20;99.90
24338;DHT22;12457;50.832;4.346;2023-11-19T03:57:23;12.20;99.90
24338;DHT22;12457;50.832;4.346;2023-11-19T03:59:49;12.10;99.90
24338;DHT22;12457;50.832;4.346;2023-11-19T04:02:15;12.10;99.90
24338;DHT22;12457;50.832;4.346;2023-11-19T04:04:41;12.20;99.90
24338;DHT22;12457;50.832;4.346;2023-11-19T04:07:07;12.30;99.90
24338;DHT22;12457;50.832;4.346;2023-11-19T04:09:33;12.40;99.90
24338;DHT22;12457;50.832;4.346;2023-11-19T04:12:00;12.50;99.90
24338;DHT22;12457;50.832;4.346;2023-11-19T04:14:26;12.40;99.90
24338;DHT22;12457;50.832;4.346;2023-11-19T04:16:52;12.40;99.90
24338;DHT22;12457;50.832;4.346;2023-11-19T04:19:19;12.30;99.90
24338;DHT22;12457;50.832;4.346;2023-11-19T04:21:45;12.20;99.90
24338;DHT22;12457;50.832;4.346;2023-11-19T04:24:15;12.30;99.90
24338;DHT22;12457;50.832;4.346;2023-11-19T04:26:41;12.20;99.90
24338;DHT22;12457;50.832;4.346;2023-11-19T04:29:12;12.30;99.90
24338;DHT22;12457;50.832;4.346;2023-11-19T04:31:38;12.30;99.90
24338;DHT22;12457;50.832;4.346;2023-11-19T04:34:05;12.30;99.90
24338;DHT22;12457;50.832;4.346;2023-11-19T04:36:32;12.30;99.90
24338;DHT22;12457;50.832;4.346;2023-11-19T04:39:00;12.20;99.90
24338;DHT22;12457;50.832;4.346;2023-11-19T04:41:29;12.20;99.90
24338;DHT22;12457;50.832;4.346;2023-11-19T04:43:54;12.20;99.90
24338;DHT22;12457;50.832;4.346;2023-11-19T04:46:20;12.20;99.90
24338;DHT22;12457;50.832;4.346;2023-11-19T04:48:46;12.30;99.90
24338;DHT22;12457;50.832;4.346;2023-11-19T04:51:12;12.20;99.90
24338;DHT22;12457;50.832;4.346;2023-11-19T04:53:38;12.30;99.90
24338;DHT22;12457;50.832;4.346;2023-11-19T04:56:16;12.30;99.90
24338;DHT22;12457;50.832;4.346;2023-11-19T04:58:45;12.30;99.90
24338;DHT22;12457;50.832;4.346;2023-11-19T05:01:14;12.40;99.90
24338;DHT22;12457;50.832;4.346;2023-11-19T05:03:43;12.40;99.90
24338;DHT22;12457;50.832;4.346;2023-11-19T05:06:10;12.50;99.90
24338;DHT22;12457;50.832;4.346;2023-11-19T05:08:36;12.50;99.90
24338;DHT22;12457;50.832;4.346;2023-11-19T05:11:02;12.30;99.90
24338;DHT22;12457;50.832;4.346;2023-11-19T05:13:58;12.20;99.90
24338;DHT22;12457;50.832;4.346;2023-11-19T05:16:24;12.10;99.90
24338;DHT22;12457;50.832;4.346;2023-11-19T05:18:55;12.10;99.90
24338;DHT22;12457;50.832;4.346;2023-11-19T05:21:21;12.00;99.90
24338;DHT22;12457;50.832;4.346;2023-11-19T05:23:47;11.90;99.90
24338;DHT22;12457;50.832;4.346;2023-11-19T05:26:20;11.90;99.90
24338;DHT22;12457;50.832;4.346;2023-11-19T05:28:52;11.90;99.90
24338;DHT22;12457;50.832;4.346;2023-11-19T05:31:18;11.90;99.90
24338;DHT22;12457;50.832;4.346;2023-11-19T05:33:44;12.00;99.90
24338;DHT22;12457;50.832;4.346;2023-11-19T05:36:11;12.00;99.90
24338;DHT22;12457;50.832;4.346;2023-11-19T05:38:38;12.00;99.90
24338;DHT22;12457;50.832;4.346;2023-11-19T05:41:04;12.00;99.90
24338;DHT22;12457;50.832;4.346;2023-11-19T05:43:32;12.00;99.90
24338;DHT22;12457;50.832;4.346;2023-11-19T05:46:00;12.00;99.90
24338;DHT22;12457;50.832;4.346;2023-11-19T05:48:27;11.90;99.90
24338;DHT22;12457;50.832;4.346;2023-11-19T05:50:53;12.00;99.90
24338;DHT22;12457;50.832;4.346;2023-11-19T05:53:19;12.00;99.90
24338;DHT22;12457;50.832;4.346;2023-11-19T05:55:45;11.90;99.90
24338;DHT22;12457;50.832;4.346;2023-11-19T05:58:26;11.80;99.90
24338;DHT22;12457;50.832;4.346;2023-11-19T06:00:54;11.80;99.90
24338;DHT22;12457;50.832;4.346;2023-11-19T06:03:19;11.70;99.90
24338;DHT22;12457;50.832;4.346;2023-11-19T06:05:47;11.70;99.90
24338;DHT22;12457;50.832;4.346;2023-11-19T06:08:13;11.70;99.90
24338;DHT22;12457;50.832;4.346;2023-11-19T06:10:43;11.60;99.90
24338;DHT22;12457;50.832;4.346;2023-11-19T06:13:12;11.60;99.90
24338;DHT22;12457;50.832;4.346;2023-11-19T06:15:37;11.50;99.90
24338;DHT22;12457;50.832;4.346;2023-11-19T06:18:03;11.50;99.90
24338;DHT22;12457;50.832;4.346;2023-11-19T06:20:31;11.50;99.90
24338;DHT22;12457;50.832;4.346;2023-11-19T06:22:57;11.40;99.90
24338;DHT22;12457;50.832;4.346;2023-11-19T06:25:23;11.40;99.90
24338;DHT22;12457;50.832;4.346;2023-11-19T06:27:52;11.40;99.90
24338;DHT22;12457;50.832;4.346;2023-11-19T06:30:19;11.30;99.90
24338;DHT22;12457;50.832;4.346;2023-11-19T06:32:45;11.30;99.90
24338;DHT22;12457;50.832;4.346;2023-11-19T06:35:11;11.20;99.90
24338;DHT22;12457;50.832;4.346;2023-11-19T06:37:39;11.10;99.90
24338;DHT22;12457;50.832;4.346;2023-11-19T06:40:05;11.20;99.90
24338;DHT22;12457;50.832;4.346;2023-11-19T06:42:32;11.20;99.90
24338;DHT22;12457;50.832;4.346;2023-11-19T06:44:58;11.20;99.90
24338;DHT22;12457;50.832;4.346;2023-11-19T06:47:28;11.20;99.90
24338;DHT22;12457;50.832;4.346;2023-11-19T06:49:54;11.30;99.90
24338;DHT22;12457;50.832;4.346;2023-11-19T06:52:20;11.20;99.90
24338;DHT22;12457;50.832;4.346;2023-11-19T06:54:46;11.20;99.90
24338;DHT22;12457;50.832;4.346;2023-11-19T06:57:15;11.20;99.90
24338;DHT22;12457;50.832;4.346;2023-11-19T06:59:40;11.10;99.90
24338;DHT22;12457;50.832;4.346;2023-11-19T07:02:07;11.10;99.90
24338;DHT22;12457;50.832;4.346;2023-11-19T07:04:34;11.10;99.90
24338;DHT22;12457;50.832;4.346;2023-11-19T07:07:00;11.20;99.90
24338;DHT22;12457;50.832;4.346;2023-11-19T07:09:26;11.20;99.90
24338;DHT22;12457;50.832;4.346;2023-11-19T07:11:53;11.20;99.90
24338;DHT22;12457;50.832;4.346;2023-11-19T07:14:50;11.20;99.90
24338;DHT22;12457;50.832;4.346;2023-11-19T07:17:16;11.20;99.90
24338;DHT22;12457;50.832;4.346;2023-11-19T07:19:43;11.20;99.90
24338;DHT22;12457;50.832;4.346;2023-11-19T07:22:09;11.30;99.90
24338;DHT22;12457;50.832;4.346;2023-11-19T07:24:39;11.30;99.90
24338;DHT22;12457;50.832;4.346;2023-11-19T07:27:06;11.30;99.90
24338;DHT22;12457;50.832;4.346;2023-11-19T07:29:34;11.40;99.90
24338;DHT22;12457;50.832;4.346;2023-11-19T07:31:59;11.40;99.90
24338;DHT22;12457;50.832;4.346;2023-11-19T07:34:28;11.40;99.90
24338;DHT22;12457;50.832;4.346;2023-11-19T07:36:54;11.40;99.90
24338;DHT22;12457;50.832;4.346;2023-11-19T07:39:22;11.40;99.90
24338;DHT22;12457;50.832;4.346;2023-11-19T07:41:49;11.40;99.90
24338;DHT22;12457;50.832;4.346;2023-11-19T07:44:16;11.40;99.90
24338;DHT22;12457;50.832;4.346;2023-11-19T07:46:41;11.40;99.90
24338;DHT22;12457;50.832;4.346;2023-11-19T07:49:10;11.40;99.90
24338;DHT22;12457;50.832;4.346;2023-11-19T07:51:38;11.40;99.90
24338;DHT22;12457;50.832;4.346;2023-11-19T07:54:04;11.40;99.90
24338;DHT22;12457;50.832;4.346;2023-11-19T07:56:33;11.50;99.90
24338;DHT22;12457;50.832;4.346;2023-11-19T07:59:22;11.50;99.90
24338;DHT22;12457;50.832;4.346;2023-11-19T08:01:48;11.60;99.90
24338;DHT22;12457;50.832;4.346;2023-11-19T08:04:15;11.60;99.90
24338;DHT22;12457;50.832;4.346;2023-11-19T08:06:40;11.60;99.90
24338;DHT22;12457;50.832;4.346;2023-11-19T08:09:06;11.60;99.90
24338;DHT22;12457;50.832;4.346;2023-11-19T08:11:33;11.50;99.90
24338;DHT22;12457;50.832;4.346;2023-11-19T08:13:59;11.60;99.90
24338;DHT22;12457;50.832;4.346;2023-11-19T08:16:24;11.60;99.90
24338;DHT22;12457;50.832;4.346;2023-11-19T08:18:50;11.60;99.90
24338;DHT22;12457;50.832;4.346;2023-11-19T08:21:16;11.70;99.90
24338;DHT22;12457;50.832;4.346;2023-11-19T08:23:42;11.70;99.90
24338;DHT22;12457;50.832;4.346;2023-11-19T08:26:08;11.70;99.90
24338;DHT22;12457;50.832;4.346;2023-11-19T08:28:37;11.70;99.90
24338;DHT22;12457;50.832;4.346;2023-11-19T08:31:06;11.80;99.90
24338;DHT22;12457;50.832;4.346;2023-11-19T08:33:32;11.90;99.90
24338;DHT22;12457;50.832;4.346;2023-11-19T08:35:58;12.00;99.90
24338;DHT22;12457;50.832;4.346;2023-11-19T08:38:24;12.10;99.90
24338;DHT22;12457;50.832;4.346;2023-11-19T08:40:51;12.10;99.90
24338;DHT22;12457;50.832;4.346;2023-11-19T08:43:20;12.10;99.90
24338;DHT22;12457;50.832;4.346;2023-11-19T08:45:48;12.10;99.90
24338;DHT22;12457;50.832;4.346;2023-11-19T08:48:14;12.00;99.90
24338;DHT22;12457;50.832;4.346;2023-11-19T08:50:39;11.90;99.90
24338;DHT22;12457;50.832;4.346;2023-11-19T08:53:05;11.90;99.90
24338;DHT22;12457;50.832;4.346;2023-11-19T08:55:33;11.90;99.90
24338;DHT22;12457;50.832;4.346;2023-11-19T08:58:01;11.90;99.90
24338;DHT22;12457;50.832;4.346;2023-11-19T09:00:31;12.00;99.90
24338;DHT22;12457;50.832;4.346;2023-11-19T09:02:58;12.10;99.90
24338;DHT22;12457;50.832;4.346;2023-11-19T09:05:29;12.10;99.90
24338;DHT22;12457;50.832;4.346;2023-11-19T09:08:00;12.20;99.90
24338;DHT22;12457;50.832;4.346;2023-11-19T09:10:26;12.20;99.90
24338;DHT22;12457;50.832;4.346;2023-11-19T09:12:57;12.20;99.90
24338;DHT22;12457;50.832;4.346;2023-11-19T09:15:26;12.20;99.90
24338;DHT22;12457;50.832;4.346;2023-11-19T09:17:52;12.30;99.90
24338;DHT22;12457;50.832;4.346;2023-11-19T09:20:17;12.40;99.90
24338;DHT22;12457;50.832;4.346;2023-11-19T09:22:47;12.40;99.90
24338;DHT22;12457;50.832;4.346;2023-11-19T09:25:13;12.50;99.90
24338;DHT22;12457;50.832;4.346;2023-11-19T09:27:43;12.50;99.90
24338;DHT22;12457;50.832;4.346;2023-11-19T09:30:20;12.50;99.90
24338;DHT22;12457;50.832;4.346;2023-11-19T09:32:46;12.60;99.90
24338;DHT22;12457;50.832;4.346;2023-11-19T09:35:12;12.50;99.90
24338;DHT22;12457;50.832;4.346;2023-11-19T09:37:40;12.40;99.90
24338;DHT22;12457;50.832;4.346;2023-11-19T09:40:07;12.40;99.90
24338;DHT22;12457;50.832;4.346;2023-11-19T09:42:43;12.40;99.90
24338;DHT22;12457;50.832;4.346;2023-11-19T09:45:16;12.40;99.90
24338;DHT22;12457;50.832;4.346;2023-11-19T09:47:44;12.50;99.90
24338;DHT22;12457;50.832;4.346;2023-11-19T09:50:32;12.50;99.90
24338;DHT22;12457;50.832;4.346;2023-11-19T09:52:58;12.60;99.90
24338;DHT22;12457;50.832;4.346;2023-11-19T09:55:24;12.70;99.90
24338;DHT22;12457;50.832;4.346;2023-11-19T09:57:51;12.70;99.90
24338;DHT22;12457;50.832;4.346;2023-11-19T10:00:19;12.70;99.90
24338;DHT22;12457;50.832;4.346;2023-11-19T10:02:47;12.70;99.90
24338;DHT22;12457;50.832;4.346;2023-11-19T10:05:14;12.70;99.90
24338;DHT22;12457;50.832;4.346;2023-11-19T10:07:41;12.80;99.90
24338;DHT22;12457;50.832;4.346;2023-11-19T10:10:08;12.80;99.90
24338;DHT22;12457;50.832;4.346;2023-11-19T10:12:36;12.80;99.90
24338;DHT22;12457;50.832;4.346;2023-11-19T10:15:04;12.90;99.90
24338;DHT22;12457;50.832;4.346;2023-11-19T10:17:33;12.90;99.90
24338;DHT22;12457;50.832;4.346;2023-11-19T10:19:59;12.90;99.90
24338;DHT22;12457;50.832;4.346;2023-11-19T10:22:25;13.00;99.90
24338;DHT22;12457;50.832;4.346;2023-11-19T10:24:55;13.10;99.90
24338;DHT22;12457;50.832;4.346;2023-11-19T10:27:24;13.20;99.90
24338;DHT22;12457;50.832;4.346;2023-11-19T10:29:51;13.30;99.90
24338;DHT22;12457;50.832;4.346;2023-11-19T10:32:16;13.50;99.90
24338;DHT22;12457;50.832;4.346;2023-11-19T10:34:42;13.60;99.90
24338;DHT22;12457;50.832;4.346;2023-11-19T10:37:09;13.70;99.90
24338;DHT22;12457;50.832;4.346;2023-11-19T10:39:54;13.60;99.90
24338;DHT22;12457;50.832;4.346;2023-11-19T10:42:20;13.60;99.90
24338;DHT22;12457;50.832;4.346;2023-11-19T10:44:46;13.60;99.90
24338;DHT22;12457;50.832;4.346;2023-11-19T10:47:14;13.60;99.90
24338;DHT22;12457;50.832;4.346;2023-11-19T10:49:43;13.60;99.90
24338;DHT22;12457;50.832;4.346;2023-11-19T10:52:09;13.60;99.90
24338;DHT22;12457;50.832;4.346;2023-11-19T10:54:35;13.50;99.90
24338;DHT22;12457;50.832;4.346;2023-11-19T10:57:02;13.50;99.90
24338;DHT22;12457;50.832;4.346;2023-11-19T10:59:30;13.50;99.90
24338;DHT22;12457;50.832;4.346;2023-11-19T11:02:03;13.60;99.90
24338;DHT22;12457;50.832;4.346;2023-11-19T11:04:33;13.70;99.90
24338;DHT22;12457;50.832;4.346;2023-11-19T11:07:03;13.70;99.90
24338;DHT22;12457;50.832;4.346;2023-11-19T11:09:30;13.80;99.90
24338;DHT22;12457;50.832;4.346;2023-11-19T11:11:57;13.90;99.90
24338;DHT22;12457;50.832;4.346;2023-11-19T11:14:25;13.90;99.90
24338;DHT22;12457;50.832;4.346;2023-11-19T11:16:53;13.80;99.90
24338;DHT22;12457;50.832;4.346;2023-11-19T11:19:22;13.70;99.90
24338;DHT22;12457;50.832;4.346;2023-11-19T11:21:53;13.60;99.90
24338;DHT22;12457;50.832;4.346;2023-11-19T11:24:44;13.60;99.90
24338;DHT22;12457;50.832;4.346;2023-11-19T11:30:39;13.40;99.90
24338;DHT22;12457;50.832;4.346;2023-11-19T11:33:29;13.30;99.90
24338;DHT22;12457;50.832;4.346;2023-11-19T11:36:17;13.30;99.90
24338;DHT22;12457;50.832;4.346;2023-11-19T11:38:48;13.40;99.90
24338;DHT22;12457;50.832;4.346;2023-11-19T11:41:22;13.50;99.90
24338;DHT22;12457;50.832;4.346;2023-11-19T11:43:55;13.50;99.90
24338;DHT22;12457;50.832;4.346;2023-11-19T11:49:03;13.40;99.90
24338;DHT22;12457;50.832;4.346;2023-11-19T11:54:39;13.50;99.90
24338;DHT22;12457;50.832;4.346;2023-11-19T11:57:11;13.60;99.90
24338;DHT22;12457;50.832;4.346;2023-11-19T11:59:46;14.00;99.90
24338;DHT22;12457;50.832;4.346;2023-11-19T12:02:15;14.00;99.90
24338;DHT22;12457;50.832;4.346;2023-11-19T12:04:42;14.20;99.90
24338;DHT22;12457;50.832;4.346;2023-11-19T12:07:14;14.20;99.90
24338;DHT22;12457;50.832;4.346;2023-11-19T12:09:51;14.20;99.90
24338;DHT22;12457;50.832;4.346;2023-11-19T12:12:22;14.30;99.90
24338;DHT22;12457;50.832;4.346;2023-11-19T12:17:40;14.20;99.90
24338;DHT22;12457;50.832;4.346;2023-11-19T12:20:08;14.10;99.90
24338;DHT22;12457;50.832;4.346;2023-11-19T12:22:38;14.00;99.90
24338;DHT22;12457;50.832;4.346;2023-11-19T12:25:08;13.90;99.90
24338;DHT22;12457;50.832;4.346;2023-11-19T12:27:43;13.70;99.90
24338;DHT22;12457;50.832;4.346;2023-11-19T12:30:09;13.60;99.90
24338;DHT22;12457;50.832;4.346;2023-11-19T12:35:08;13.60;99.90
24338;DHT22;12457;50.832;4.346;2023-11-19T12:37:44;13.50;99.90
24338;DHT22;12457;50.832;4.346;2023-11-19T12:40:19;13.40;99.90
24338;DHT22;12457;50.832;4.346;2023-11-19T12:42:48;13.40;99.90
24338;DHT22;12457;50.832;4.346;2023-11-19T12:45:20;13.40;99.90
24338;DHT22;12457;50.832;4.346;2023-11-19T12:47:47;13.40;99.90
24338;DHT22;12457;50.832;4.346;2023-11-19T12:50:15;13.50;99.90
24338;DHT22;12457;50.832;4.346;2023-11-19T12:52:43;13.50;99.90
24338;DHT22;12457;50.832;4.346;2023-11-19T12:55:28;13.60;99.90
24338;DHT22;12457;50.832;4.346;2023-11-19T12:57:54;13.80;99.90
24338;DHT22;12457;50.832;4.346;2023-11-19T13:00:25;13.80;99.90
24338;DHT22;12457;50.832;4.346;2023-11-19T13:02:53;13.70;99.90
24338;DHT22;12457;50.832;4.346;2023-11-19T13:05:35;13.70;99.90
24338;DHT22;12457;50.832;4.346;2023-11-19T13:08:05;13.80;99.90
24338;DHT22;12457;50.832;4.346;2023-11-19T13:10:54;13.80;99.90
24338;DHT22;12457;50.832;4.346;2023-11-19T13:13:20;13.70;99.90
24338;DHT22;12457;50.832;4.346;2023-11-19T13:16:05;13.70;99.90
24338;DHT22;12457;50.832;4.346;2023-11-19T13:18:31;13.80;99.90
24338;DHT22;12457;50.832;4.346;2023-11-19T13:20:58;13.80;99.90
24338;DHT22;12457;50.832;4.346;2023-11-19T13:23:23;13.90;99.90
24338;DHT22;12457;50.832;4.346;2023-11-19T13:25:49;13.90;99.90
24338;DHT22;12457;50.832;4.346;2023-11-19T13:28:15;13.80;99.90
24338;DHT22;12457;50.832;4.346;2023-11-19T13:30:40;13.80;99.90
24338;DHT22;12457;50.832;4.346;2023-11-19T13:33:06;13.80;99.90
24338;DHT22;12457;50.832;4.346;2023-11-19T13:35:32;13.70;99.90
24338;DHT22;12457;50.832;4.346;2023-11-19T13:37:57;13.60;99.90
24338;DHT22;12457;50.832;4.346;2023-11-19T13:40:24;13.60;99.90
24338;DHT22;12457;50.832;4.346;2023-11-19T13:42:50;13.70;99.90
24338;DHT22;12457;50.832;4.346;2023-11-19T13:45:16;13.60;99.90
24338;DHT22;12457;50.832;4.346;2023-11-19T13:47:45;13.60;99.90
24338;DHT22;12457;50.832;4.346;2023-11-19T13:50:15;13.70;99.90
24338;DHT22;12457;50.832;4.346;2023-11-19T13:52:45;13.50;99.90
24338;DHT22;12457;50.832;4.346;2023-11-19T13:55:13;13.40;99.90
24338;DHT22;12457;50.832;4.346;2023-11-19T13:57:40;13.40;99.90
24338;DHT22;12457;50.832;4.346;2023-11-19T14:00:08;13.40;99.90
24338;DHT22;12457;50.832;4.346;2023-11-19T14:02:53;13.40;99.90
24338;DHT22;12457;50.832;4.346;2023-11-19T14:05:21;13.40;99.90
24338;DHT22;12457;50.832;4.346;2023-11-19T14:07:47;13.50;99.90
24338;DHT22;12457;50.832;4.346;2023-11-19T14:10:15;13.40;99.90
24338;DHT22;12457;50.832;4.346;2023-11-19T14:12:42;13.40;99.90
24338;DHT22;12457;50.832;4.346;2023-11-19T14:15:11;13.50;99.90
24338;DHT22;12457;50.832;4.346;2023-11-19T14:17:40;13.50;99.90
24338;DHT22;12457;50.832;4.346;2023-11-19T14:20:07;13.40;99.90
24338;DHT22;12457;50.832;4.346;2023-11-19T14:22:41;13.40;99.90
24338;DHT22;12457;50.832;4.346;2023-11-19T14:25:08;13.40;99.90
24338;DHT22;12457;50.832;4.346;2023-11-19T14:27:39;13.30;99.90
24338;DHT22;12457;50.832;4.346;2023-11-19T14:30:06;13.30;99.90
24338;DHT22;12457;50.832;4.346;2023-11-19T14:32:32;13.20;99.90
24338;DHT22;12457;50.832;4.346;2023-11-19T14:34:58;13.10;99.90
24338;DHT22;12457;50.832;4.346;2023-11-19T14:37:24;13.00;99.90
24338;DHT22;12457;50.832;4.346;2023-11-19T14:39:50;12.90;99.90
24338;DHT22;12457;50.832;4.346;2023-11-19T14:42:18;12.90;99.90
24338;DHT22;12457;50.832;4.346;2023-11-19T14:44:44;12.90;99.90
24338;DHT22;12457;50.832;4.346;2023-11-19T14:47:14;12.80;99.90
24338;DHT22;12457;50.832;4.346;2023-11-19T14:49:42;12.70;99.90
24338;DHT22;12457;50.832;4.346;2023-11-19T14:52:07;12.70;99.90
24338;DHT22;12457;50.832;4.346;2023-11-19T14:54:33;12.70;99.90
24338;DHT22;12457;50.832;4.346;2023-11-19T14:56:59;12.70;99.90
24338;DHT22;12457;50.832;4.346;2023-11-19T14:59:26;12.70;99.90
24338;DHT22;12457;50.832;4.346;2023-11-19T15:01:52;12.70;99.90
24338;DHT22;12457;50.832;4.346;2023-11-19T15:04:19;12.70;99.90
24338;DHT22;12457;50.832;4.346;2023-11-19T15:06:45;12.70;99.90
24338;DHT22;12457;50.832;4.346;2023-11-19T15:09:11;12.60;99.90
24338;DHT22;12457;50.832;4.346;2023-11-19T15:11:43;12.60;99.90
24338;DHT22;12457;50.832;4.346;2023-11-19T15:14:14;12.60;99.90
24338;DHT22;12457;50.832;4.346;2023-11-19T15:16:42;12.60;99.90
24338;DHT22;12457;50.832;4.346;2023-11-19T15:19:09;12.60;99.90
24338;DHT22;12457;50.832;4.346;2023-11-19T15:21:34;12.60;99.90
24338;DHT22;12457;50.832;4.346;2023-11-19T15:24:01;12.60;99.90
24338;DHT22;12457;50.832;4.346;2023-11-19T15:26:30;12.60;99.90
24338;DHT22;12457;50.832;4.346;2023-11-19T15:28:56;12.60;99.90
24338;DHT22;12457;50.832;4.346;2023-11-19T15:31:24;12.60;99.90
24338;DHT22;12457;50.832;4.346;2023-11-19T15:33:55;12.70;99.90
24338;DHT22;12457;50.832;4.346;2023-11-19T15:36:21;12.70;99.90
24338;DHT22;12457;50.832;4.346;2023-11-19T15:38:46;12.70;99.90
24338;DHT22;12457;50.832;4.346;2023-11-19T15:41:13;12.80;99.90
24338;DHT22;12457;50.832;4.346;2023-11-19T15:43:38;12.80;99.90
24338;DHT22;12457;50.832;4.346;2023-11-19T15:46:09;12.90;99.90
24338;DHT22;12457;50.832;4.346;2023-11-19T15:48:36;12.90;99.90
24338;DHT22;12457;50.832;4.346;2023-11-19T15:51:02;12.90;99.90